sensor_id;sensor_type;location;lat;lon;timestamp;temperature;humidity
10692;DHT22;5396;50.950;6.988;2024-02-15T00:01:21;11.40;99.90
10692;DHT22;5396;50.950;6.988;2024-02-15T00:03:47;11.40;99.90
10692;DHT22;5396;50.950;6.988;2024-02-15T00:06:13;11.40;99.90
10692;DHT22;5396;50.950;6.988;2024-02-15T00:08:39;11.40;99.90
10692;DHT22;5396;50.950;6.988;2024-02-15T00:11:04;11.40;99.90
10692;DHT22;5396;50.950;6.988;2024-02-15T00:13:30;11.40;99.90
10692;DHT22;5396;50.950;6.988;2024-02-15T00:15:58;11.40;99.90
10692;DHT22;5396;50.950;6.988;2024-02-15T00:18:24;11.40;99.90
10692;DHT22;5396;50.950;6.988;2024-02-15T00:20:50;11.50;99.90
10692;DHT22;5396;50.950;6.988;2024-02-15T00:23:15;11.40;99.90
10692;DHT22;5396;50.950;6.988;2024-02-15T00:25:42;11.40;99.90
10692;DHT22;5396;50.950;6.988;2024-02-15T00:28:10;11.40;99.90
10692;DHT22;5396;50.950;6.988;2024-02-15T00:30:36;11.40;99.90
10692;DHT22;5396;50.950;6.988;2024-02-15T00:33:02;11.40;99.90
10692;DHT22;5396;50.950;6.988;2024-02-15T00:35:28;11.40;99.90
10692;DHT22;5396;50.950;6.988;2024-02-15T00:37:53;11.50;99.90
10692;DHT22;5396;50.950;6.988;2024-02-15T00:40:19;11.50;99.90
10692;DHT22;5396;50.950;6.988;2024-02-15T00:42:46;11.50;99.90
10692;DHT22;5396;50.950;6.988;2024-02-15T00:45:12;11.50;99.90
10692;DHT22;5396;50.950;6.988;2024-02-15T00:47:38;11.50;99.90
10692;DHT22;5396;50.950;6.988;2024-02-15T00:50:03;11.50;99.90
10692;DHT22;5396;50.950;6.988;2024-02-15T00:52:29;11.50;99.90
10692;DHT22;5396;50.950;6.988;2024-02-15T00:54:56;11.50;99.90
10692;DHT22;5396;50.950;6.988;2024-02-15T00:57:22;11.50;99.90
10692;DHT22;5396;50.950;6.988;2024-02-15T00:59:48;11.50;99.90
10692;DHT22;5396;50.950;6.988;2024-02-15T01:02:13;11.50;99.90
10692;DHT22;5396;50.950;6.988;2024-02-15T01:04:39;11.50;99.90
10692;DHT22;5396;50.950;6.988;2024-02-15T01:07:05;11.50;99.90
10692;DHT22;5396;50.950;6.988;2024-02-15T01:09:30;11.50;99.90
10692;DHT22;5396;50.950;6.988;2024-02-15T01:11:55;11.50;99.90
10692;DHT22;5396;50.950;6.988;2024-02-15T01:14:22;11.50;99.90
10692;DHT22;5396;50.950;6.988;2024-02-15T01:16:47;11.60;99.90
10692;DHT22;5396;50.950;6.988;2024-02-15T01:19:12;11.60;99.90
10692;DHT22;5396;50.950;6.988;2024-02-15T01:21:38;11.60;99.90
10692;DHT22;5396;50.950;6.988;2024-02-15T01:24:04;11.50;99.90
10692;DHT22;5396;50.950;6.988;2024-02-15T01:26:32;11.60;99.90
10692;DHT22;5396;50.950;6.988;2024-02-15T01:28:57;11.60;99.90
10692;DHT22;5396;50.950;6.988;2024-02-15T01:31:23;11.60;99.90
10692;DHT22;5396;50.950;6.988;2024-02-15T01:33:48;11.50;99.90
10692;DHT22;5396;50.950;6.988;2024-02-15T01:36:14;11.50;99.90
10692;DHT22;5396;50.950;6.988;2024-02-15T01:38:41;11.50;99.90
10692;DHT22;5396;50.950;6.988;2024-02-15T01:41:07;11.50;99.90
10692;DHT22;5396;50.950;6.988;2024-02-15T01:43:33;11.50;99.90
10692;DHT22;5396;50.950;6.988;2024-02-15T01:45:59;11.50;99.90
10692;DHT22;5396;50.950;6.988;2024-02-15T01:48:29;11.50;99.90
10692;DHT22;5396;50.950;6.988;2024-02-15T01:50:54;11.50;99.90
10692;DHT22;5396;50.950;6.988;2024-02-15T01:53:20;11.50;99.90
10692;DHT22;5396;50.950;6.988;2024-02-15T01:55:45;11.50;99.90
10692;DHT22;5396;50.950;6.988;2024-02-15T01:58:11;11.50;99.90
10692;DHT22;5396;50.950;6.988;2024-02-15T02:00:37;11.50;99.90
10692;DHT22;5396;50.950;6.988;2024-02-15T02:03:04;11.50;99.90
10692;DHT22;5396;50.950;6.988;2024-02-15T02:05:30;11.50;99.90
10692;DHT22;5396;50.950;6.988;2024-02-15T02:07:56;11.50;99.90
10692;DHT22;5396;50.950;6.988;2024-02-15T02:10:25;11.50;99.90
10692;DHT22;5396;50.950;6.988;2024-02-15T02:12:52;11.50;99.90
10692;DHT22;5396;50.950;6.988;2024-02-15T02:15:18;11.50;99.90
10692;DHT22;5396;50.950;6.988;2024-02-15T02:17:51;11.50;99.90
10692;DHT22;5396;50.950;6.988;2024-02-15T02:20:16;11.50;99.90
10692;DHT22;5396;50.950;6.988;2024-02-15T02:22:43;11.50;99.90
10692;DHT22;5396;50.950;6.988;2024-02-15T02:25:10;11.50;99.90
10692;DHT22;5396;50.950;6.988;2024-02-15T02:27:38;11.50;99.90
10692;DHT22;5396;50.950;6.988;2024-02-15T02:30:04;11.50;99.90
10692;DHT22;5396;50.950;6.988;2024-02-15T02:32:34;11.50;99.90
10692;DHT22;5396;50.950;6.988;2024-02-15T02:35:01;11.50;99.90
10692;DHT22;5396;50.950;6.988;2024-02-15T02:37:27;11.50;99.90
10692;DHT22;5396;50.950;6.988;2024-02-15T02:39:53;11.50;99.90
10692;DHT22;5396;50.950;6.988;2024-02-15T02:42:18;11.50;99.90
10692;DHT22;5396;50.950;6.988;2024-02-15T02:44:44;11.50;99.90
10692;DHT22;5396;50.950;6.988;2024-02-15T02:47:10;11.50;99.90
10692;DHT22;5396;50.950;6.988;2024-02-15T02:49:36;11.50;99.90
10692;DHT22;5396;50.950;6.988;2024-02-15T02:52:02;11.50;99.90
10692;DHT22;5396;50.950;6.988;2024-02-15T02:54:28;11.50;99.90
10692;DHT22;5396;50.950;6.988;2024-02-15T02:56:54;11.50;99.90
10692;DHT22;5396;50.950;6.988;2024-02-15T02:59:20;11.50;99.90
10692;DHT22;5396;50.950;6.988;2024-02-15T03:01:45;11.60;99.90
10692;DHT22;5396;50.950;6.988;2024-02-15T03:04:11;11.60;99.90
10692;DHT22;5396;50.950;6.988;2024-02-15T03:06:37;11.60;99.90
10692;DHT22;5396;50.950;6.988;2024-02-15T03:09:03;11.60;99.90
10692;DHT22;5396;50.950;6.988;2024-02-15T03:11:32;11.50;99.90
10692;DHT22;5396;50.950;6.988;2024-02-15T03:13:59;11.50;99.90
10692;DHT22;5396;50.950;6.988;2024-02-15T03:16:25;11.50;99.90
10692;DHT22;5396;50.950;6.988;2024-02-15T03:18:51;11.50;99.90
10692;DHT22;5396;50.950;6.988;2024-02-15T03:21:18;11.50;99.90
10692;DHT22;5396;50.950;6.988;2024-02-15T03:23:44;11.50;99.90
10692;DHT22;5396;50.950;6.988;2024-02-15T03:26:10;11.50;99.90
10692;DHT22;5396;50.950;6.988;2024-02-15T03:28:37;11.50;99.90
10692;DHT22;5396;50.950;6.988;2024-02-15T03:31:03;11.50;99.90
10692;DHT22;5396;50.950;6.988;2024-02-15T03:33:28;11.50;99.90
10692;DHT22;5396;50.950;6.988;2024-02-15T03:35:59;11.50;99.90
10692;DHT22;5396;50.950;6.988;2024-02-15T03:38:27;11.50;99.90
10692;DHT22;5396;50.950;6.988;2024-02-15T03:40:57;11.50;99.90
10692;DHT22;5396;50.950;6.988;2024-02-15T03:43:23;11.50;99.90
10692;DHT22;5396;50.950;6.988;2024-02-15T03:45:49;11.50;99.90
10692;DHT22;5396;50.950;6.988;2024-02-15T03:48:14;11.50;99.90
10692;DHT22;5396;50.950;6.988;2024-02-15T03:50:40;11.50;99.90
10692;DHT22;5396;50.950;6.988;2024-02-15T03:53:07;11.50;99.90
10692;DHT22;5396;50.950;6.988;2024-02-15T03:55:33;11.60;99.90
10692;DHT22;5396;50.950;6.988;2024-02-15T03:57:58;11.60;99.90
10692;DHT22;5396;50.950;6.988;2024-02-15T04:00:24;11.60;99.90
10692;DHT22;5396;50.950;6.988;2024-02-15T04:02:50;11.60;99.90
10692;DHT22;5396;50.950;6.988;2024-02-15T04:05:15;11.60;99.90
10692;DHT22;5396;50.950;6.988;2024-02-15T04:07:43;11.60;99.90
10692;DHT22;5396;50.950;6.988;2024-02-15T04:10:09;11.60;99.90
10692;DHT22;5396;50.950;6.988;2024-02-15T04:12:35;11.60;99.90
10692;DHT22;5396;50.950;6.988;2024-02-15T04:15:00;11.60;99.90
10692;DHT22;5396;50.950;6.988;2024-02-15T04:17:31;11.60;99.90
10692;DHT22;5396;50.950;6.988;2024-02-15T04:19:58;11.60;99.90
10692;DHT22;5396;50.950;6.988;2024-02-15T04:22:23;11.60;99.90
10692;DHT22;5396;50.950;6.988;2024-02-15T04:24:49;11.60;99.90
10692;DHT22;5396;50.950;6.988;2024-02-15T04:27:15;11.60;99.90
10692;DHT22;5396;50.950;6.988;2024-02-15T04:29:41;11.60;99.90
10692;DHT22;5396;50.950;6.988;2024-02-15T04:32:07;11.60;99.90
10692;DHT22;5396;50.950;6.988;2024-02-15T04:34:34;11.70;99.90
10692;DHT22;5396;50.950;6.988;2024-02-15T04:37:00;11.70;99.90
10692;DHT22;5396;50.950;6.988;2024-02-15T04:39:26;11.70;99.90
10692;DHT22;5396;50.950;6.988;2024-02-15T04:41:52;11.70;99.90
10692;DHT22;5396;50.950;6.988;2024-02-15T04:44:18;11.70;99.90
10692;DHT22;5396;50.950;6.988;2024-02-15T04:46:52;11.70;99.90
10692;DHT22;5396;50.950;6.988;2024-02-15T04:49:17;11.80;99.90
10692;DHT22;5396;50.950;6.988;2024-02-15T04:51:44;11.80;99.90
10692;DHT22;5396;50.950;6.988;2024-02-15T04:54:09;11.80;99.90
10692;DHT22;5396;50.950;6.988;2024-02-15T04:56:38;11.90;99.90
10692;DHT22;5396;50.950;6.988;2024-02-15T04:59:05;11.90;99.90
10692;DHT22;5396;50.950;6.988;2024-02-15T05:01:34;11.90;99.90
10692;DHT22;5396;50.950;6.988;2024-02-15T05:04:00;11.90;99.90
10692;DHT22;5396;50.950;6.988;2024-02-15T05:06:26;11.90;99.90
10692;DHT22;5396;50.950;6.988;2024-02-15T05:08:55;11.90;99.90
10692;DHT22;5396;50.950;6.988;2024-02-15T05:11:22;11.90;99.90
10692;DHT22;5396;50.950;6.988;2024-02-15T05:13:48;11.90;99.90
10692;DHT22;5396;50.950;6.988;2024-02-15T05:16:16;11.90;99.90
10692;DHT22;5396;50.950;6.988;2024-02-15T05:18:42;11.90;99.90
10692;DHT22;5396;50.950;6.988;2024-02-15T05:21:07;11.90;99.90
10692;DHT22;5396;50.950;6.988;2024-02-15T05:23:36;11.90;99.90
10692;DHT22;5396;50.950;6.988;2024-02-15T05:26:02;11.90;99.90
10692;DHT22;5396;50.950;6.988;2024-02-15T05:28:28;11.90;99.90
10692;DHT22;5396;50.950;6.988;2024-02-15T05:31:08;11.90;99.90
10692;DHT22;5396;50.950;6.988;2024-02-15T05:33:33;11.90;99.90
10692;DHT22;5396;50.950;6.988;2024-02-15T05:35:59;11.90;99.90
10692;DHT22;5396;50.950;6.988;2024-02-15T05:38:24;12.00;99.90
10692;DHT22;5396;50.950;6.988;2024-02-15T05:40:50;11.90;99.90
10692;DHT22;5396;50.950;6.988;2024-02-15T05:43:17;11.90;99.90
10692;DHT22;5396;50.950;6.988;2024-02-15T05:45:42;11.90;99.90
10692;DHT22;5396;50.950;6.988;2024-02-15T05:48:11;11.90;99.90
10692;DHT22;5396;50.950;6.988;2024-02-15T05:50:37;11.90;99.90
10692;DHT22;5396;50.950;6.988;2024-02-15T05:53:03;11.90;99.90
10692;DHT22;5396;50.950;6.988;2024-02-15T05:55:29;11.90;99.90
10692;DHT22;5396;50.950;6.988;2024-02-15T05:57:58;11.90;99.90
10692;DHT22;5396;50.950;6.988;2024-02-15T06:00:24;11.90;99.90
10692;DHT22;5396;50.950;6.988;2024-02-15T06:02:50;11.80;99.90
10692;DHT22;5396;50.950;6.988;2024-02-15T06:05:15;11.80;99.90
10692;DHT22;5396;50.950;6.988;2024-02-15T06:07:42;11.80;99.90
10692;DHT22;5396;50.950;6.988;2024-02-15T06:10:08;11.80;99.90
10692;DHT22;5396;50.950;6.988;2024-02-15T06:12:33;11.80;99.90
10692;DHT22;5396;50.950;6.988;2024-02-15T06:14:59;11.80;99.90
10692;DHT22;5396;50.950;6.988;2024-02-15T06:17:25;11.80;99.90
10692;DHT22;5396;50.950;6.988;2024-02-15T06:19:50;11.80;99.90
10692;DHT22;5396;50.950;6.988;2024-02-15T06:22:16;11.70;99.90
10692;DHT22;5396;50.950;6.988;2024-02-15T06:24:41;11.70;99.90
10692;DHT22;5396;50.950;6.988;2024-02-15T06:27:07;11.80;99.90
10692;DHT22;5396;50.950;6.988;2024-02-15T06:29:33;11.80;99.90
10692;DHT22;5396;50.950;6.988;2024-02-15T06:32:17;11.80;99.90
10692;DHT22;5396;50.950;6.988;2024-02-15T06:35:08;11.80;99.90
10692;DHT22;5396;50.950;6.988;2024-02-15T06:37:53;11.80;99.90
10692;DHT22;5396;50.950;6.988;2024-02-15T06:40:37;11.80;99.90
10692;DHT22;5396;50.950;6.988;2024-02-15T06:43:02;11.80;99.90
10692;DHT22;5396;50.950;6.988;2024-02-15T06:45:28;11.90;99.90
10692;DHT22;5396;50.950;6.988;2024-02-15T06:47:57;11.90;99.90
10692;DHT22;5396;50.950;6.988;2024-02-15T06:50:23;11.90;99.90
10692;DHT22;5396;50.950;6.988;2024-02-15T06:52:49;11.90;99.90
10692;DHT22;5396;50.950;6.988;2024-02-15T06:55:17;11.90;99.90
10692;DHT22;5396;50.950;6.988;2024-02-15T06:57:44;11.90;99.90
10692;DHT22;5396;50.950;6.988;2024-02-15T07:00:10;11.90;99.90
10692;DHT22;5396;50.950;6.988;2024-02-15T07:02:40;11.90;99.90
10692;DHT22;5396;50.950;6.988;2024-02-15T07:05:06;11.90;99.90
10692;DHT22;5396;50.950;6.988;2024-02-15T07:07:32;11.90;99.90
10692;DHT22;5396;50.950;6.988;2024-02-15T07:09:59;11.90;99.90
10692;DHT22;5396;50.950;6.988;2024-02-15T07:12:25;12.00;99.90
10692;DHT22;5396;50.950;6.988;2024-02-15T07:14:50;12.00;99.90
10692;DHT22;5396;50.950;6.988;2024-02-15T07:17:16;12.00;99.90
10692;DHT22;5396;50.950;6.988;2024-02-15T07:19:44;12.00;99.90
10692;DHT22;5396;50.950;6.988;2024-02-15T07:22:11;12.00;99.90
10692;DHT22;5396;50.950;6.988;2024-02-15T07:24:37;12.00;99.90
10692;DHT22;5396;50.950;6.988;2024-02-15T07:27:04;12.00;99.90
10692;DHT22;5396;50.950;6.988;2024-02-15T07:29:29;12.00;99.90
10692;DHT22;5396;50.950;6.988;2024-02-15T07:31:56;12.00;99.90
10692;DHT22;5396;50.950;6.988;2024-02-15T07:34:22;12.00;99.90
10692;DHT22;5396;50.950;6.988;2024-02-15T07:36:48;12.00;99.90
10692;DHT22;5396;50.950;6.988;2024-02-15T07:39:13;12.00;99.90
10692;DHT22;5396;50.950;6.988;2024-02-15T07:41:48;12.00;99.90
10692;DHT22;5396;50.950;6.988;2024-02-15T07:44:14;12.00;99.90
10692;DHT22;5396;50.950;6.988;2024-02-15T07:46:41;12.00;99.90
10692;DHT22;5396;50.950;6.988;2024-02-15T07:49:06;12.00;99.90
10692;DHT22;5396;50.950;6.988;2024-02-15T07:51:33;12.00;99.90
10692;DHT22;5396;50.950;6.988;2024-02-15T07:53:58;12.10;99.90
10692;DHT22;5396;50.950;6.988;2024-02-15T07:56:24;12.10;99.90
10692;DHT22;5396;50.950;6.988;2024-02-15T07:58:50;12.10;99.90
10692;DHT22;5396;50.950;6.988;2024-02-15T08:01:17;12.10;99.90
10692;DHT22;5396;50.950;6.988;2024-02-15T08:03:43;12.10;99.90
10692;DHT22;5396;50.950;6.988;2024-02-15T08:06:11;12.10;99.90
10692;DHT22;5396;50.950;6.988;2024-02-15T08:08:38;12.10;99.90
10692;DHT22;5396;50.950;6.988;2024-02-15T08:11:06;12.10;99.90
10692;DHT22;5396;50.950;6.988;2024-02-15T08:13:35;12.10;99.90
10692;DHT22;5396;50.950;6.988;2024-02-15T08:16:03;12.10;99.90
10692;DHT22;5396;50.950;6.988;2024-02-15T08:18:30;12.00;99.90
10692;DHT22;5396;50.950;6.988;2024-02-15T08:20:56;12.00;99.90
10692;DHT22;5396;50.950;6.988;2024-02-15T08:23:22;12.00;99.90
10692;DHT22;5396;50.950;6.988;2024-02-15T08:25:47;12.00;99.90
10692;DHT22;5396;50.950;6.988;2024-02-15T08:28:13;12.00;99.90
10692;DHT22;5396;50.950;6.988;2024-02-15T08:30:38;12.00;99.90
10692;DHT22;5396;50.950;6.988;2024-02-15T08:33:04;12.00;99.90
10692;DHT22;5396;50.950;6.988;2024-02-15T08:35:29;12.00;99.90
10692;DHT22;5396;50.950;6.988;2024-02-15T08:37:55;12.00;99.90
10692;DHT22;5396;50.950;6.988;2024-02-15T08:40:21;12.00;99.90
10692;DHT22;5396;50.950;6.988;2024-02-15T08:42:50;12.00;99.90
10692;DHT22;5396;50.950;6.988;2024-02-15T08:45:15;12.00;99.90
10692;DHT22;5396;50.950;6.988;2024-02-15T08:47:41;12.00;99.90
10692;DHT22;5396;50.950;6.988;2024-02-15T08:50:08;12.00;99.90
10692;DHT22;5396;50.950;6.988;2024-02-15T08:52:37;12.00;99.90
10692;DHT22;5396;50.950;6.988;2024-02-15T08:55:05;12.00;99.90
10692;DHT22;5396;50.950;6.988;2024-02-15T08:57:32;11.90;99.90
10692;DHT22;5396;50.950;6.988;2024-02-15T08:59:58;11.90;99.90
10692;DHT22;5396;50.950;6.988;2024-02-15T09:02:24;11.90;99.90
10692;DHT22;5396;50.950;6.988;2024-02-15T09:04:49;12.00;99.90
10692;DHT22;5396;50.950;6.988;2024-02-15T09:07:15;12.10;99.90
10692;DHT22;5396;50.950;6.988;2024-02-15T09:09:40;12.20;99.90
10692;DHT22;5396;50.950;6.988;2024-02-15T09:12:06;12.30;99.90
10692;DHT22;5396;50.950;6.988;2024-02-15T09:14:32;12.40;99.90
10692;DHT22;5396;50.950;6.988;2024-02-15T09:16:58;12.50;99.90
10692;DHT22;5396;50.950;6.988;2024-02-15T09:19:24;12.50;99.90
10692;DHT22;5396;50.950;6.988;2024-02-15T09:21:49;12.60;99.90
10692;DHT22;5396;50.950;6.988;2024-02-15T09:24:15;12.70;99.90
10692;DHT22;5396;50.950;6.988;2024-02-15T09:26:41;12.80;99.90
10692;DHT22;5396;50.950;6.988;2024-02-15T09:29:07;12.90;99.90
10692;DHT22;5396;50.950;6.988;2024-02-15T09:31:32;13.00;99.90
10692;DHT22;5396;50.950;6.988;2024-02-15T09:34:00;13.00;99.90
10692;DHT22;5396;50.950;6.988;2024-02-15T09:36:25;13.10;99.90
10692;DHT22;5396;50.950;6.988;2024-02-15T09:38:53;13.10;99.90
10692;DHT22;5396;50.950;6.988;2024-02-15T09:41:19;13.20;99.90
10692;DHT22;5396;50.950;6.988;2024-02-15T09:43:44;13.20;99.90
10692;DHT22;5396;50.950;6.988;2024-02-15T09:46:10;13.20;99.90
10692;DHT22;5396;50.950;6.988;2024-02-15T09:48:35;13.30;99.90
10692;DHT22;5396;50.950;6.988;2024-02-15T09:51:01;13.40;99.90
10692;DHT22;5396;50.950;6.988;2024-02-15T09:53:27;13.40;99.90
10692;DHT22;5396;50.950;6.988;2024-02-15T09:55:54;13.50;99.90
10692;DHT22;5396;50.950;6.988;2024-02-15T09:58:20;13.50;99.90
10692;DHT22;5396;50.950;6.988;2024-02-15T10:00:48;13.70;99.90
10692;DHT22;5396;50.950;6.988;2024-02-15T10:03:14;13.70;99.90
10692;DHT22;5396;50.950;6.988;2024-02-15T10:05:41;13.80;99.90
10692;DHT22;5396;50.950;6.988;2024-02-15T10:08:07;13.80;99.90
10692;DHT22;5396;50.950;6.988;2024-02-15T10:10:32;13.80;99.90
10692;DHT22;5396;50.950;6.988;2024-02-15T10:12:59;13.90;99.90
10692;DHT22;5396;50.950;6.988;2024-02-15T10:17:59;14.00;99.90
10692;DHT22;5396;50.950;6.988;2024-02-15T10:20:25;14.00;99.90
10692;DHT22;5396;50.950;6.988;2024-02-15T10:25:29;13.90;99.90
10692;DHT22;5396;50.950;6.988;2024-02-15T10:28:03;13.90;99.90
10692;DHT22;5396;50.950;6.988;2024-02-15T10:30:39;13.90;99.90
10692;DHT22;5396;50.950;6.988;2024-02-15T10:33:05;13.90;99.90
10692;DHT22;5396;50.950;6.988;2024-02-15T10:35:31;13.90;99.90
10692;DHT22;5396;50.950;6.988;2024-02-15T10:40:33;14.10;99.90
10692;DHT22;5396;50.950;6.988;2024-02-15T10:42:58;14.20;99.90
10692;DHT22;5396;50.950;6.988;2024-02-15T10:45:24;14.30;99.90
10692;DHT22;5396;50.950;6.988;2024-02-15T10:47:50;14.30;99.90
10692;DHT22;5396;50.950;6.988;2024-02-15T10:50:16;14.50;99.90
10692;DHT22;5396;50.950;6.988;2024-02-15T10:52:57;14.50;99.90
10692;DHT22;5396;50.950;6.988;2024-02-15T10:55:48;14.50;99.90
10692;DHT22;5396;50.950;6.988;2024-02-15T10:58:09;14.40;99.90
10692;DHT22;5396;50.950;6.988;2024-02-15T11:00:38;14.50;99.90
10692;DHT22;5396;50.950;6.988;2024-02-15T11:03:05;14.60;99.90
10692;DHT22;5396;50.950;6.988;2024-02-15T11:05:36;14.70;99.90
10692;DHT22;5396;50.950;6.988;2024-02-15T11:08:06;14.70;99.90
10692;DHT22;5396;50.950;6.988;2024-02-15T11:10:35;14.70;99.90
10692;DHT22;5396;50.950;6.988;2024-02-15T11:13:01;14.80;99.90
10692;DHT22;5396;50.950;6.988;2024-02-15T11:18:01;14.80;99.90
10692;DHT22;5396;50.950;6.988;2024-02-15T11:23:02;15.00;99.90
10692;DHT22;5396;50.950;6.988;2024-02-15T11:25:31;15.10;99.90
10692;DHT22;5396;50.950;6.988;2024-02-15T11:27:57;15.20;99.90
10692;DHT22;5396;50.950;6.988;2024-02-15T11:30:31;15.20;99.90
10692;DHT22;5396;50.950;6.988;2024-02-15T11:32:57;15.30;99.90
10692;DHT22;5396;50.950;6.988;2024-02-15T11:35:26;15.30;99.90
10692;DHT22;5396;50.950;6.988;2024-02-15T11:37:54;15.40;99.90
10692;DHT22;5396;50.950;6.988;2024-02-15T11:42:52;15.50;99.90
10692;DHT22;5396;50.950;6.988;2024-02-15T11:45:22;15.40;99.90
10692;DHT22;5396;50.950;6.988;2024-02-15T11:47:49;15.50;99.90
10692;DHT22;5396;50.950;6.988;2024-02-15T11:50:16;15.50;99.90
10692;DHT22;5396;50.950;6.988;2024-02-15T11:52:43;15.50;99.90
10692;DHT22;5396;50.950;6.988;2024-02-15T11:55:09;15.60;99.90
10692;DHT22;5396;50.950;6.988;2024-02-15T11:57:39;15.70;99.90
10692;DHT22;5396;50.950;6.988;2024-02-15T12:00:27;15.70;99.90
10692;DHT22;5396;50.950;6.988;2024-02-15T12:03:13;15.70;99.90
10692;DHT22;5396;50.950;6.988;2024-02-15T12:05:57;15.70;99.90
10692;DHT22;5396;50.950;6.988;2024-02-15T12:08:45;15.80;99.90
10692;DHT22;5396;50.950;6.988;2024-02-15T12:11:29;15.90;99.90
10692;DHT22;5396;50.950;6.988;2024-02-15T12:14:14;15.90;99.90
10692;DHT22;5396;50.950;6.988;2024-02-15T12:16:59;16.00;99.90
10692;DHT22;5396;50.950;6.988;2024-02-15T12:19:43;16.10;99.90
10692;DHT22;5396;50.950;6.988;2024-02-15T12:22:09;16.10;99.90
10692;DHT22;5396;50.950;6.988;2024-02-15T12:24:35;16.10;99.90
10692;DHT22;5396;50.950;6.988;2024-02-15T12:27:01;16.20;99.90
10692;DHT22;5396;50.950;6.988;2024-02-15T12:29:28;16.10;99.90
10692;DHT22;5396;50.950;6.988;2024-02-15T12:31:55;16.10;99.90
10692;DHT22;5396;50.950;6.988;2024-02-15T12:34:20;16.20;99.90
10692;DHT22;5396;50.950;6.988;2024-02-15T12:36:46;16.30;99.90
10692;DHT22;5396;50.950;6.988;2024-02-15T12:39:14;16.30;99.90
10692;DHT22;5396;50.950;6.988;2024-02-15T12:41:49;16.30;99.90
10692;DHT22;5396;50.950;6.988;2024-02-15T12:44:17;16.30;99.90
10692;DHT22;5396;50.950;6.988;2024-02-15T12:46:45;16.40;99.90
10692;DHT22;5396;50.950;6.988;2024-02-15T12:51:51;16.40;99.90
10692;DHT22;5396;50.950;6.988;2024-02-15T12:54:23;16.40;99.90
10692;DHT22;5396;50.950;6.988;2024-02-15T12:56:49;16.50;99.90
10692;DHT22;5396;50.950;6.988;2024-02-15T12:59:16;16.60;99.90
10692;DHT22;5396;50.950;6.988;2024-02-15T13:01:45;16.70;99.90
10692;DHT22;5396;50.950;6.988;2024-02-15T13:04:23;16.80;99.90
10692;DHT22;5396;50.950;6.988;2024-02-15T13:06:49;16.80;99.90
10692;DHT22;5396;50.950;6.988;2024-02-15T13:09:15;16.70;99.90
10692;DHT22;5396;50.950;6.988;2024-02-15T13:11:40;16.70;99.90
10692;DHT22;5396;50.950;6.988;2024-02-15T13:14:10;16.70;99.90
10692;DHT22;5396;50.950;6.988;2024-02-15T13:16:36;16.70;99.90
10692;DHT22;5396;50.950;6.988;2024-02-15T13:19:02;16.60;99.90
10692;DHT22;5396;50.950;6.988;2024-02-15T13:21:28;16.60;99.90
10692;DHT22;5396;50.950;6.988;2024-02-15T13:23:55;16.50;99.90
10692;DHT22;5396;50.950;6.988;2024-02-15T13:26:21;16.50;99.90
10692;DHT22;5396;50.950;6.988;2024-02-15T13:28:48;16.40;99.90
10692;DHT22;5396;50.950;6.988;2024-02-15T13:31:14;16.30;99.90
10692;DHT22;5396;50.950;6.988;2024-02-15T13:33:40;16.20;99.90
10692;DHT22;5396;50.950;6.988;2024-02-15T13:36:06;16.20;99.90
10692;DHT22;5396;50.950;6.988;2024-02-15T13:38:39;16.20;99.90
10692;DHT22;5396;50.950;6.988;2024-02-15T13:41:04;16.30;99.90
10692;DHT22;5396;50.950;6.988;2024-02-15T13:43:30;16.30;99.90
10692;DHT22;5396;50.950;6.988;2024-02-15T13:45:57;16.40;99.90
10692;DHT22;5396;50.950;6.988;2024-02-15T13:48:23;16.40;99.90
10692;DHT22;5396;50.950;6.988;2024-02-15T13:50:52;16.50;99.90
10692;DHT22;5396;50.950;6.988;2024-02-15T13:53:21;16.60;99.90
10692;DHT22;5396;50.950;6.988;2024-02-15T13:55:46;16.70;99.90
10692;DHT22;5396;50.950;6.988;2024-02-15T13:58:13;17.00;99.90
10692;DHT22;5396;50.950;6.988;2024-02-15T14:00:39;17.30;99.90
10692;DHT22;5396;50.950;6.988;2024-02-15T14:03:07;17.50;99.90
10692;DHT22;5396;50.950;6.988;2024-02-15T14:05:35;17.70;99.90
10692;DHT22;5396;50.950;6.988;2024-02-15T14:08:02;17.60;99.90
10692;DHT22;5396;50.950;6.988;2024-02-15T14:10:28;17.40;99.90
10692;DHT22;5396;50.950;6.988;2024-02-15T14:12:54;17.20;99.90
10692;DHT22;5396;50.950;6.988;2024-02-15T14:15:29;17.10;99.90
10692;DHT22;5396;50.950;6.988;2024-02-15T14:17:54;17.10;99.90
10692;DHT22;5396;50.950;6.988;2024-02-15T14:20:21;17.10;99.90
10692;DHT22;5396;50.950;6.988;2024-02-15T14:22:47;16.90;99.90
10692;DHT22;5396;50.950;6.988;2024-02-15T14:25:24;16.90;99.90
10692;DHT22;5396;50.950;6.988;2024-02-15T14:27:51;16.80;99.90
10692;DHT22;5396;50.950;6.988;2024-02-15T14:30:18;16.80;99.90
10692;DHT22;5396;50.950;6.988;2024-02-15T14:33:02;16.90;99.90
10692;DHT22;5396;50.950;6.988;2024-02-15T14:35:37;16.90;99.90
10692;DHT22;5396;50.950;6.988;2024-02-15T14:38:05;16.90;99.90
10692;DHT22;5396;50.950;6.988;2024-02-15T14:43:04;16.80;99.90
10692;DHT22;5396;50.950;6.988;2024-02-15T14:45:39;16.80;99.90
10692;DHT22;5396;50.950;6.988;2024-02-15T14:48:08;16.80;99.90
10692;DHT22;5396;50.950;6.988;2024-02-15T14:50:35;16.80;99.90
10692;DHT22;5396;50.950;6.988;2024-02-15T14:53:01;16.70;99.90
10692;DHT22;5396;50.950;6.988;2024-02-15T14:55:26;16.70;99.90
10692;DHT22;5396;50.950;6.988;2024-02-15T14:57:52;16.70;99.90
10692;DHT22;5396;50.950;6.988;2024-02-15T15:00:22;16.60;99.90
10692;DHT22;5396;50.950;6.988;2024-02-15T15:02:50;16.60;99.90
10692;DHT22;5396;50.950;6.988;2024-02-15T15:05:15;16.50;99.90
10692;DHT22;5396;50.950;6.988;2024-02-15T15:07:59;16.50;99.90
10692;DHT22;5396;50.950;6.988;2024-02-15T15:10:47;16.50;99.90
10692;DHT22;5396;50.950;6.988;2024-02-15T15:13:31;16.50;99.90
10692;DHT22;5396;50.950;6.988;2024-02-15T15:15:58;16.40;99.90
10692;DHT22;5396;50.950;6.988;2024-02-15T15:18:23;16.40;99.90
10692;DHT22;5396;50.950;6.988;2024-02-15T15:20:49;16.40;99.90
10692;DHT22;5396;50.950;6.988;2024-02-15T15:23:15;16.40;99.90
10692;DHT22;5396;50.950;6.988;2024-02-15T15:25:41;16.40;99.90
10692;DHT22;5396;50.950;6.988;2024-02-15T15:28:07;16.40;99.90
10692;DHT22;5396;50.950;6.988;2024-02-15T15:30:32;16.30;99.90
10692;DHT22;5396;50.950;6.988;2024-02-15T15:32:59;16.30;99.90
10692;DHT22;5396;50.950;6.988;2024-02-15T15:35:28;16.20;99.90
10692;DHT22;5396;50.950;6.988;2024-02-15T15:37:57;16.20;99.90
10692;DHT22;5396;50.950;6.988;2024-02-15T15:40:23;16.10;99.90
10692;DHT22;5396;50.950;6.988;2024-02-15T15:42:49;16.10;99.90
10692;DHT22;5396;50.950;6.988;2024-02-15T15:45:15;16.00;99.90
10692;DHT22;5396;50.950;6.988;2024-02-15T15:47:43;16.00;99.90
10692;DHT22;5396;50.950;6.988;2024-02-15T15:50:09;16.00;99.90
10692;DHT22;5396;50.950;6.988;2024-02-15T15:52:37;16.00;99.90
10692;DHT22;5396;50.950;6.988;2024-02-15T15:55:06;15.90;99.90
10692;DHT22;5396;50.950;6.988;2024-02-15T15:57:37;15.90;99.90
10692;DHT22;5396;50.950;6.988;2024-02-15T16:00:05;15.90;99.90
10692;DHT22;5396;50.950;6.988;2024-02-15T16:02:30;15.80;99.90
10692;DHT22;5396;50.950;6.988;2024-02-15T16:04:56;16.00;99.90
10692;DHT22;5396;50.950;6.988;2024-02-15T16:07:22;16.20;99.90